createdAt,value
2018-12-05T00:01:26.573Z,85.98
2018-12-05T00:03:56.622Z,85.95
2018-12-05T00:06:26.726Z,85.67
2018-12-05T00:08:57.457Z,86.29
2018-12-05T00:11:28.964Z,86.27
2018-12-05T00:13:59.575Z,86.34
2018-12-05T00:16:30.051Z,85.93
2018-12-05T00:19:01.742Z,85.99
2018-12-05T00:21:32.509Z,86.58
2018-12-05T00:24:02.458Z,86.77
2018-12-05T00:26:32.957Z,86.85
2018-12-05T00:29:04.511Z,86.93
2018-12-05T00:31:34.910Z,87.17
2018-12-05T00:34:05.133Z,87.12
2018-12-05T00:36:36.802Z,87.51
2018-12-05T00:39:09.902Z,87.45
2018-12-05T00:41:41.362Z,87.09
2018-12-05T00:44:11.573Z,86.95
2018-12-05T00:46:42.112Z,86.89
2018-12-05T00:49:13.854Z,86.72
2018-12-05T00:51:44.584Z,87.14
2018-12-05T00:54:14.786Z,87.16
2018-12-05T00:56:44.871Z,87.36
2018-12-05T00:59:15.719Z,87.55
2018-12-05T01:01:46.473Z,87.47
2018-12-05T01:04:16.497Z,87.60
2018-12-05T01:06:47.014Z,87.53
2018-12-05T01:09:18.328Z,86.96
2018-12-05T01:11:49.713Z,87.31
2018-12-05T01:14:19.809Z,87.28
2018-12-05T01:16:49.761Z,87.19
2018-12-05T01:19:19.710Z,87.59
2018-12-05T01:21:49.702Z,87.42
2018-12-05T01:24:19.811Z,87.69
2018-12-05T01:26:50.209Z,87.12
2018-12-05T01:29:20.900Z,87.56
2018-12-05T01:31:52.048Z,87.71
2018-12-05T01:34:23.409Z,87.63
2018-12-05T01:36:54.017Z,87.94
2018-12-05T01:39:24.074Z,88.05
2018-12-05T01:41:54.827Z,87.35
2018-12-05T01:44:25.586Z,87.48
2018-12-05T01:46:55.641Z,87.99
2018-12-05T01:49:26.146Z,87.99
2018-12-05T01:51:56.206Z,87.85
2018-12-05T01:54:26.767Z,87.55
2018-12-05T01:56:56.906Z,87.61
2018-12-05T01:59:27.049Z,87.71
2018-12-05T02:01:58.130Z,87.69
2018-12-05T02:04:29.374Z,87.16
2018-12-05T02:07:01.343Z,87.54
2018-12-05T02:09:32.078Z,87.37
2018-12-05T02:12:03.218Z,87.94
2018-12-05T02:14:34.061Z,88.16
2018-12-05T02:17:05.259Z,88.01
2018-12-05T02:19:35.233Z,87.56
2018-12-05T02:22:05.838Z,88.35
2018-12-05T02:24:36.578Z,88.12
2018-12-05T02:27:07.753Z,88.04
2018-12-05T02:29:44.564Z,88.19
2018-12-05T02:32:16.065Z,88.14
2018-12-05T02:34:46.793Z,88.17
2018-12-05T02:37:18.096Z,87.89
2018-12-05T02:39:50.011Z,88.37
2018-12-05T02:42:20.210Z,88.32
2018-12-05T02:44:50.426Z,87.90
2018-12-05T02:47:21.839Z,88.53
2018-12-05T02:49:53.695Z,88.13
2018-12-05T02:52:25.034Z,88.10
2018-12-05T02:54:55.830Z,88.17
2018-12-05T02:57:27.017Z,88.52
2018-12-05T02:59:58.981Z,88.37
2018-12-05T03:02:29.619Z,89.22
2018-12-05T03:05:00.805Z,89.39
2018-12-05T03:07:31.322Z,89.82
2018-12-05T03:10:02.721Z,89.89
2018-12-05T03:12:32.811Z,90.06
2018-12-05T03:15:03.731Z,90.05
2018-12-05T03:17:34.968Z,89.79
2018-12-05T03:20:06.048Z,90.06
2018-12-05T03:22:37.774Z,89.98
2018-12-05T03:25:08.734Z,90.09
2018-12-05T03:27:39.577Z,90.48
2018-12-05T03:30:11.046Z,90.45
2018-12-05T03:32:43.000Z,90.10
2018-12-05T03:35:13.814Z,90.48
2018-12-05T03:37:45.298Z,90.39
2018-12-05T03:40:15.513Z,91.01
2018-12-05T03:42:45.645Z,91.04
2018-12-05T03:45:16.518Z,90.46
2018-12-05T03:47:46.820Z,91.31
2018-12-05T03:50:17.453Z,91.03
2018-12-05T03:52:48.290Z,90.46
2018-12-05T03:55:20.191Z,90.56
2018-12-05T03:57:50.962Z,91.20
2018-12-05T04:00:22.728Z,90.80
2018-12-05T04:02:53.501Z,90.73
2018-12-05T04:05:25.024Z,90.76
2018-12-05T04:07:55.825Z,91.37
2018-12-05T04:10:25.946Z,90.66
2018-12-05T04:12:57.230Z,91.53
2018-12-05T04:15:27.846Z,90.87
2018-12-05T04:17:59.187Z,91.22
2018-12-05T04:20:30.444Z,91.63
2018-12-05T04:23:01.617Z,91.24
2018-12-05T04:25:32.374Z,91.63
2018-12-05T04:28:04.331Z,91.77
2018-12-05T04:30:35.570Z,91.13
2018-12-05T04:33:05.586Z,90.96
2018-12-05T04:35:36.097Z,91.37
2018-12-05T04:38:06.757Z,91.15
2018-12-05T04:40:37.357Z,91.66
2018-12-05T04:43:07.430Z,91.14
2018-12-05T04:45:37.543Z,91.30
2018-12-05T04:48:08.707Z,91.72
2018-12-05T04:50:38.706Z,91.37
2018-12-05T04:53:09.276Z,91.92
2018-12-05T04:55:40.721Z,91.93
2018-12-05T04:58:11.418Z,91.44
2018-12-05T05:00:43.190Z,91.73
2018-12-05T05:03:13.554Z,91.63
2018-12-05T05:05:44.826Z,91.74
2018-12-05T05:08:16.228Z,91.58
2018-12-05T05:10:46.331Z,91.27
2018-12-05T05:13:17.102Z,91.34
2018-12-05T05:15:47.575Z,91.37
2018-12-05T05:18:17.702Z,91.37
2018-12-05T05:20:48.274Z,90.65
2018-12-05T05:23:18.298Z,90.48
2018-12-05T05:25:48.968Z,90.58
2018-12-05T05:28:19.080Z,90.90
2018-12-05T05:30:49.271Z,91.16
2018-12-05T05:33:20.734Z,91.72
2018-12-05T05:35:51.678Z,91.60
2018-12-05T05:38:21.732Z,92.28
2018-12-05T05:40:51.792Z,92.13
2018-12-05T05:43:21.865Z,92.44
2018-12-05T05:45:52.536Z,92.39
2018-12-05T05:48:23.229Z,92.05
2018-12-05T05:50:53.361Z,92.25
2018-12-05T05:53:23.895Z,92.01
2018-12-05T05:55:53.997Z,91.81
2018-12-05T05:58:24.870Z,91.69
2018-12-05T06:00:55.626Z,91.48
2018-12-05T06:03:26.140Z,91.89
2018-12-05T06:05:57.601Z,91.81
2018-12-05T06:08:28.200Z,91.88
2018-12-05T06:10:59.423Z,92.09
2018-12-05T06:13:29.466Z,91.82
2018-12-05T06:16:00.093Z,92.39
2018-12-05T06:18:31.353Z,92.46
2018-12-05T06:21:01.529Z,92.62
2018-12-05T06:23:31.590Z,92.07
2018-12-05T06:26:01.643Z,92.68
2018-12-05T06:28:31.746Z,92.40
2018-12-05T06:31:03.241Z,92.49
2018-12-05T06:33:34.368Z,92.54
2018-12-05T06:36:05.653Z,92.98
2018-12-05T06:38:36.256Z,92.80
2018-12-05T06:41:06.961Z,92.69
2018-12-05T06:43:36.937Z,92.81
2018-12-05T06:46:07.109Z,92.86
2018-12-05T06:48:37.971Z,92.94
2018-12-05T06:51:10.009Z,93.35
2018-12-05T06:53:40.074Z,92.77
2018-12-05T06:56:10.069Z,93.44
2018-12-05T06:58:40.801Z,93.41
2018-12-05T07:01:10.983Z,93.04
2018-12-05T07:03:40.874Z,93.44
2018-12-05T07:06:11.046Z,93.41
2018-12-05T07:08:42.318Z,93.18
2018-12-05T07:11:12.832Z,93.35
2018-12-05T07:13:44.123Z,93.09
2018-12-05T07:16:15.667Z,93.35
2018-12-05T07:18:46.622Z,93.31
2018-12-05T07:21:17.462Z,93.24
2018-12-05T07:23:47.513Z,93.41
2018-12-05T07:26:17.616Z,93.01
2018-12-05T07:28:47.734Z,93.18
2018-12-05T07:31:18.573Z,93.41
2018-12-05T07:33:49.263Z,93.29
2018-12-05T07:36:20.149Z,93.04
2018-12-05T07:38:52.399Z,93.34
2018-12-05T07:41:22.423Z,93.41
2018-12-05T07:43:54.282Z,92.20
2018-12-05T07:46:24.533Z,90.79
2018-12-05T07:48:54.568Z,86.36
2018-12-05T07:51:25.602Z,81.44
2018-12-05T07:53:57.851Z,78.75
2018-12-05T07:56:28.381Z,77.20
2018-12-05T07:58:58.354Z,76.92
2018-12-05T08:01:29.357Z,77.63
2018-12-05T08:03:59.390Z,78.23
2018-12-05T08:06:29.440Z,75.91
2018-12-05T08:08:59.538Z,75.74
2018-12-05T08:11:29.618Z,75.42
2018-12-05T08:14:00.811Z,75.36
2018-12-05T08:16:31.458Z,74.68
2018-12-05T08:19:02.162Z,75.38
2018-12-05T08:21:33.501Z,73.17
2018-12-05T08:24:04.139Z,73.16
2018-12-05T08:26:35.107Z,74.21
2018-12-05T08:29:05.818Z,74.17
2018-12-05T08:31:48.954Z,73.31
2018-12-05T08:34:19.600Z,74.15
2018-12-05T08:36:49.620Z,74.69
2018-12-05T08:39:19.641Z,75.53
2018-12-05T08:41:52.119Z,75.91
2018-12-05T08:44:22.045Z,76.15
2018-12-05T08:46:52.958Z,74.73
2018-12-05T08:49:23.706Z,73.77
2018-12-05T08:51:53.771Z,71.78
2018-12-05T08:54:23.890Z,69.90
2018-12-05T08:56:53.809Z,68.95
2018-12-05T08:59:25.418Z,68.87
2018-12-05T09:01:56.153Z,69.70
2018-12-05T09:04:26.302Z,69.64
2018-12-05T09:06:57.050Z,70.18
2018-12-05T09:09:27.565Z,71.30
2018-12-05T09:11:59.409Z,71.97
2018-12-05T09:14:30.407Z,72.01
2018-12-05T09:17:02.160Z,73.83
2018-12-05T09:19:32.866Z,72.91
2018-12-05T09:22:02.899Z,73.94
2018-12-05T09:24:32.894Z,73.79
2018-12-05T09:27:03.440Z,73.57
2018-12-05T09:29:34.882Z,72.24
2018-12-05T09:32:06.218Z,73.22
2018-12-05T09:34:36.399Z,72.09
2018-12-05T09:37:06.896Z,71.58
2018-12-05T09:39:38.606Z,72.67
2018-12-05T09:42:09.853Z,72.16
2018-12-05T09:44:39.833Z,72.43
2018-12-05T09:47:15.742Z,72.08
2018-12-05T09:49:42.344Z,71.88
2018-12-05T09:52:12.301Z,71.36
2018-12-05T09:54:42.922Z,72.51
2018-12-05T09:57:13.996Z,73.28
2018-12-05T09:59:45.689Z,74.36
2018-12-05T10:02:16.266Z,74.19
2018-12-05T10:04:46.754Z,73.11
2018-12-05T10:07:17.259Z,72.54
2018-12-05T10:09:47.351Z,72.72
2018-12-05T10:12:18.818Z,72.63
2018-12-05T10:14:50.005Z,72.50
2018-12-05T10:17:20.767Z,72.72
2018-12-05T10:19:51.578Z,71.80
2018-12-05T10:22:21.619Z,71.99
2018-12-05T10:24:52.085Z,72.18
2018-12-05T10:27:22.218Z,71.88
2018-12-05T10:29:52.730Z,72.02
2018-12-05T10:32:22.735Z,72.04
2018-12-05T10:34:53.246Z,71.73
2018-12-05T10:37:24.517Z,72.41
2018-12-05T10:39:55.871Z,72.07
2018-12-05T10:42:27.508Z,71.98
2018-12-05T10:44:58.248Z,72.14
2018-12-05T10:47:28.240Z,71.78
2018-12-05T10:49:58.924Z,71.45
2018-12-05T10:52:29.759Z,71.00
2018-12-05T10:54:59.837Z,71.45
2018-12-05T10:57:31.237Z,70.76
2018-12-05T11:00:01.256Z,70.87
2018-12-05T11:03:40.946Z,70.58
2018-12-05T11:06:16.751Z,70.98
2018-12-05T11:08:51.732Z,71.02
2018-12-05T11:11:27.281Z,70.78
2018-12-05T11:14:02.964Z,69.96
2018-12-05T11:16:41.654Z,70.53
2018-12-05T11:19:17.298Z,71.12
2018-12-05T11:21:53.230Z,70.90
2018-12-05T11:24:30.263Z,70.56
2018-12-05T11:27:01.690Z,70.47
2018-12-05T11:29:32.552Z,69.73
2018-12-05T11:32:03.114Z,69.50
2018-12-05T11:34:34.743Z,68.90
2018-12-05T11:37:07.630Z,68.84
2018-12-05T11:39:40.619Z,69.15
2018-12-05T11:42:12.122Z,69.15
2018-12-05T11:44:42.342Z,69.93
2018-12-05T11:47:13.345Z,70.98
2018-12-05T11:49:43.465Z,71.42
2018-12-05T11:52:14.104Z,71.41
2018-12-05T11:54:45.388Z,72.26
2018-12-05T11:57:15.305Z,72.26
2018-12-05T11:59:46.828Z,72.20
2018-12-05T12:02:22.252Z,71.85
2018-12-05T12:04:50.744Z,70.54
2018-12-05T12:07:22.532Z,71.54
2018-12-05T12:09:52.728Z,73.16
2018-12-05T12:12:28.225Z,72.86
2018-12-05T12:14:58.942Z,72.78
2018-12-05T12:17:29.157Z,71.41
2018-12-05T12:19:59.232Z,70.82
2018-12-05T12:22:29.900Z,71.66
2018-12-05T12:24:59.983Z,71.99
2018-12-05T12:27:29.951Z,71.35
2018-12-05T12:30:01.412Z,72.06
2018-12-05T12:32:32.039Z,72.40
2018-12-05T12:35:02.131Z,71.68
2018-12-05T12:37:32.202Z,71.82
2018-12-05T12:40:04.036Z,72.07
2018-12-05T12:42:34.064Z,72.41
2018-12-05T12:45:05.227Z,71.32
2018-12-05T12:47:35.417Z,69.64
2018-12-05T12:50:07.803Z,69.43
2018-12-05T12:52:37.964Z,69.31
2018-12-05T12:55:08.486Z,69.17
2018-12-05T12:57:39.655Z,68.76
2018-12-05T13:00:11.508Z,68.83
2018-12-05T13:02:41.599Z,68.64
2018-12-05T13:05:12.411Z,69.02
2018-12-05T13:07:43.113Z,69.08
2018-12-05T13:10:14.527Z,69.41
2018-12-05T13:12:44.647Z,69.24
2018-12-05T13:15:14.794Z,69.27
2018-12-05T13:17:44.916Z,70.31
2018-12-05T13:20:15.143Z,70.65
2018-12-05T13:22:47.524Z,70.47
2018-12-05T13:25:18.078Z,69.92
2018-12-05T13:27:49.030Z,69.24
2018-12-05T13:30:19.710Z,70.24
2018-12-05T13:32:50.181Z,70.64
2018-12-05T13:35:20.672Z,71.27
2018-12-05T13:37:50.629Z,71.44
2018-12-05T13:40:21.271Z,71.16
2018-12-05T13:42:51.270Z,71.53
2018-12-05T13:45:22.792Z,71.49
2018-12-05T13:47:54.274Z,72.03
2018-12-05T13:50:24.598Z,71.61
2018-12-05T13:52:55.131Z,70.77
2018-12-05T13:55:25.720Z,70.57
2018-12-05T13:57:55.674Z,71.12
2018-12-05T14:00:25.994Z,71.09
2018-12-05T14:02:56.047Z,71.82
2018-12-05T14:05:26.922Z,72.45
2018-12-05T14:07:56.903Z,72.97
2018-12-05T14:10:26.972Z,74.14
2018-12-05T14:12:59.713Z,74.36
2018-12-05T14:15:30.427Z,75.40
2018-12-05T14:18:03.299Z,75.36
2018-12-05T14:20:34.059Z,75.98
2018-12-05T14:23:04.132Z,76.04
2018-12-05T14:25:35.257Z,76.15
2018-12-05T14:28:05.834Z,75.97
2018-12-05T14:30:36.003Z,76.07
2018-12-05T14:33:06.614Z,76.07
2018-12-05T14:35:36.602Z,75.69
2018-12-05T14:38:08.533Z,75.99
2018-12-05T14:40:38.702Z,75.52
2018-12-05T14:43:08.660Z,75.75
2018-12-05T14:45:38.666Z,75.77
2018-12-05T14:48:09.622Z,75.11
2018-12-05T14:50:41.638Z,75.74
2018-12-05T14:53:12.114Z,76.42
2018-12-05T14:55:43.569Z,76.72
2018-12-05T14:58:14.323Z,77.16
2018-12-05T15:00:45.546Z,76.83
2018-12-05T15:03:16.296Z,77.11
2018-12-05T15:05:47.545Z,78.20
2018-12-05T15:08:18.186Z,79.02
2018-12-05T15:10:49.498Z,79.52
2018-12-05T15:13:19.762Z,80.04
2018-12-05T15:15:49.969Z,80.32
2018-12-05T15:18:20.512Z,80.67
2018-12-05T15:20:51.148Z,81.05
2018-12-05T15:23:21.354Z,81.01
2018-12-05T15:25:52.328Z,81.05
2018-12-05T15:28:23.205Z,80.85
2018-12-05T15:30:54.935Z,80.43
2018-12-05T15:33:25.036Z,80.98
2018-12-05T15:35:55.899Z,81.16
2018-12-05T15:38:27.156Z,81.42
2018-12-05T15:40:57.969Z,81.35
2018-12-05T15:43:28.606Z,81.85
2018-12-05T15:45:58.623Z,81.53
2018-12-05T15:48:28.735Z,81.65
2018-12-05T15:50:58.666Z,81.60
2018-12-05T15:53:28.594Z,80.75
2018-12-05T15:55:59.358Z,80.07
2018-12-05T15:58:31.240Z,79.53
2018-12-05T16:01:01.383Z,79.16
2018-12-05T16:03:32.458Z,78.97
2018-12-05T16:06:03.091Z,79.21
2018-12-05T16:08:33.145Z,79.16
2018-12-05T16:11:04.444Z,78.84
2018-12-05T16:13:34.608Z,78.65
2018-12-05T16:16:08.106Z,78.79
2018-12-05T16:18:39.561Z,78.75
2018-12-05T16:21:10.074Z,79.01
2018-12-05T16:23:40.156Z,78.83
2018-12-05T16:26:11.173Z,79.53
2018-12-05T16:28:43.328Z,79.21
2018-12-05T16:31:14.050Z,79.18
2018-12-05T16:33:44.630Z,79.02
2018-12-05T16:36:15.384Z,79.11
2018-12-05T16:38:46.058Z,79.30
2018-12-05T16:41:17.559Z,79.16
2018-12-05T16:43:48.868Z,79.38
2018-12-05T16:46:19.707Z,79.10
2018-12-05T16:48:50.243Z,79.01
2018-12-05T16:51:20.440Z,78.65
2018-12-05T16:53:52.018Z,78.02
2018-12-05T16:56:23.071Z,78.74
2018-12-05T16:58:53.724Z,78.90
2018-12-05T17:01:24.500Z,78.90
2018-12-05T17:03:55.282Z,78.11
2018-12-05T17:06:25.380Z,78.20
2018-12-05T17:08:57.806Z,78.11
2018-12-05T17:11:27.923Z,77.63
2018-12-05T17:13:58.027Z,77.73
2018-12-05T17:16:28.879Z,77.75
2018-12-05T17:18:59.802Z,77.63
2018-12-05T17:21:31.283Z,77.09
2018-12-05T17:24:02.110Z,77.36
2018-12-05T17:26:32.144Z,77.46
2018-12-05T17:29:02.095Z,77.38
2018-12-05T17:31:32.735Z,76.87
2018-12-05T17:34:03.537Z,76.83
2018-12-05T17:36:33.619Z,76.98
2018-12-05T17:39:08.125Z,77.30
2018-12-05T17:41:39.707Z,76.41
2018-12-05T17:44:09.764Z,76.26
2018-12-05T17:46:40.605Z,76.57
2018-12-05T17:49:10.653Z,76.61
2018-12-05T17:51:40.724Z,76.48
2018-12-05T17:54:14.747Z,76.98
2018-12-05T17:56:44.376Z,76.68
2018-12-05T17:59:14.702Z,76.41
2018-12-05T18:01:45.321Z,76.18
2018-12-05T18:04:15.281Z,75.79
2018-12-05T18:06:45.862Z,75.54
2018-12-05T18:09:16.531Z,75.99
2018-12-05T18:11:47.201Z,75.77
2018-12-05T18:14:17.796Z,75.68
2018-12-05T18:16:47.783Z,75.87
2018-12-05T18:19:18.494Z,75.63
2018-12-05T18:21:49.247Z,75.61
2018-12-05T18:24:19.934Z,75.78
2018-12-05T18:26:50.247Z,75.68
2018-12-05T18:29:20.382Z,75.45
2018-12-05T18:31:51.814Z,74.86
2018-12-05T18:34:22.471Z,75.65
2018-12-05T18:36:53.163Z,75.84
2018-12-05T18:39:23.974Z,75.45
2018-12-05T18:41:54.788Z,75.45
2018-12-05T18:44:24.830Z,75.89
2018-12-05T18:46:54.874Z,75.83
2018-12-05T18:49:25.005Z,76.01
2018-12-05T18:51:57.225Z,76.24
2018-12-05T18:54:28.786Z,76.42
2018-12-05T18:56:58.806Z,76.38
2018-12-05T18:59:29.083Z,76.29
2018-12-05T19:01:59.581Z,76.50
2018-12-05T19:04:30.362Z,76.63
2018-12-05T19:07:01.140Z,77.48
2018-12-05T19:09:31.984Z,77.16
2018-12-05T19:12:03.619Z,77.09
2018-12-05T19:14:38.922Z,77.26
2018-12-05T19:17:09.567Z,76.78
2018-12-05T19:19:40.386Z,76.69
2018-12-05T19:22:12.627Z,76.72
2018-12-05T19:24:43.887Z,76.79
2018-12-05T19:27:13.974Z,76.57
2018-12-05T19:29:44.739Z,77.45
2018-12-05T19:32:14.752Z,77.43
2018-12-05T19:34:46.956Z,77.82
2018-12-05T19:37:18.284Z,78.08
2018-12-05T19:39:48.438Z,78.14
2018-12-05T19:42:18.469Z,78.01
2018-12-05T19:44:49.270Z,77.77
2018-12-05T19:47:20.726Z,78.09
2018-12-05T19:49:51.665Z,77.96
2018-12-05T19:52:22.299Z,78.12
2018-12-05T19:54:53.035Z,78.95
2018-12-05T19:57:24.899Z,79.04
2018-12-05T19:59:56.753Z,78.89
2018-12-05T20:02:26.948Z,78.32
2018-12-05T20:04:57.783Z,78.59
2018-12-05T20:07:27.826Z,79.25
2018-12-05T20:09:57.972Z,79.43
2018-12-05T20:12:29.473Z,79.24
2018-12-05T20:14:59.819Z,79.10
2018-12-05T20:17:30.957Z,79.35
2018-12-05T20:20:01.202Z,78.93
2018-12-05T20:22:33.574Z,79.06
2018-12-05T20:25:03.775Z,78.48
2018-12-05T20:27:33.910Z,78.70
2018-12-05T20:30:05.463Z,78.03
2018-12-05T20:32:35.638Z,77.52
2018-12-05T20:35:06.534Z,77.44
2018-12-05T20:37:36.541Z,76.89
2018-12-05T20:40:07.531Z,76.84
2018-12-05T20:42:56.673Z,77.08
2018-12-05T20:45:27.348Z,77.24
2018-12-05T20:47:58.688Z,77.59
2018-12-05T20:50:28.714Z,76.73
2018-12-05T20:52:59.455Z,77.08
2018-12-05T20:55:29.538Z,77.13
2018-12-05T20:58:00.717Z,76.87
2018-12-05T21:00:31.278Z,76.08
2018-12-05T21:03:02.457Z,76.53
2018-12-05T21:05:33.354Z,77.56
2018-12-05T21:08:04.550Z,77.84
2018-12-05T21:10:35.942Z,77.66
2018-12-05T21:13:07.498Z,77.91
2018-12-05T21:15:38.579Z,78.65
2018-12-05T21:18:09.266Z,79.21
2018-12-05T21:20:40.519Z,79.37
2018-12-05T21:23:10.653Z,79.45
2018-12-05T21:25:40.829Z,80.13
2018-12-05T21:28:11.883Z,80.25
2018-12-05T21:30:42.682Z,80.71
2018-12-05T21:33:13.584Z,80.11
2018-12-05T21:35:43.555Z,79.91
2018-12-05T21:38:13.590Z,80.80
2018-12-05T21:40:44.928Z,80.65
2018-12-05T21:43:16.454Z,80.98
2018-12-05T21:45:47.469Z,79.95
2018-12-05T21:48:18.338Z,80.20
2018-12-05T21:50:49.506Z,80.26
2018-12-05T21:53:19.559Z,80.82
2018-12-05T21:55:50.501Z,80.10
2018-12-05T21:58:21.071Z,80.07
2018-12-05T22:00:51.273Z,80.49
2018-12-05T22:03:22.124Z,80.98
2018-12-05T22:05:52.752Z,81.27
2018-12-05T22:08:24.340Z,80.99
2018-12-05T22:10:54.483Z,81.59
2018-12-05T22:13:24.593Z,81.36
2018-12-05T22:15:54.751Z,81.42
2018-12-05T22:18:25.693Z,81.22
2018-12-05T22:20:56.904Z,81.46
2018-12-05T22:23:27.752Z,81.55
2018-12-05T22:25:58.559Z,81.72
2018-12-05T22:28:30.221Z,82.01
2018-12-05T22:31:02.307Z,82.08
2018-12-05T22:33:32.542Z,82.38
2018-12-05T22:36:04.093Z,82.34
2018-12-05T22:38:35.009Z,82.46
2018-12-05T22:41:06.388Z,82.50
2018-12-05T22:43:37.718Z,82.28
2018-12-05T22:46:09.991Z,82.52
2018-12-05T22:48:41.234Z,82.53
2018-12-05T22:51:11.299Z,82.43
2018-12-05T22:53:41.303Z,82.39
2018-12-05T22:56:11.353Z,82.55
2018-12-05T22:58:41.413Z,83.12
2018-12-05T23:01:11.865Z,83.29
2018-12-05T23:03:42.516Z,83.05
2018-12-05T23:06:13.643Z,83.28
2018-12-05T23:08:45.264Z,83.40
2018-12-05T23:11:16.141Z,83.58
2018-12-05T23:13:46.477Z,84.31
2018-12-05T23:16:17.735Z,84.94
2018-12-05T23:18:49.380Z,84.67
2018-12-05T23:21:20.254Z,85.32
2018-12-05T23:23:50.306Z,85.85
2018-12-05T23:26:20.859Z,85.96
2018-12-05T23:28:52.244Z,86.35
2018-12-05T23:31:22.762Z,86.26
2018-12-05T23:33:53.387Z,86.59
2018-12-05T23:36:23.555Z,86.30
2018-12-05T23:38:54.785Z,85.95
2018-12-05T23:41:26.234Z,86.24
2018-12-05T23:43:57.694Z,86.37
2018-12-05T23:46:27.703Z,86.10
2018-12-05T23:48:59.133Z,86.59
2018-12-05T23:51:30.417Z,86.43
2018-12-05T23:54:01.279Z,86.83
2018-12-05T23:56:31.292Z,86.90
2018-12-05T23:59:01.636Z,86.52
